createdAt,value
2022-09-28T00:00:18.566Z,99.99
2022-09-28T00:02:49.458Z,99.99
2022-09-28T00:05:20.324Z,99.99
2022-09-28T00:07:51.149Z,99.99
2022-09-28T00:10:25.306Z,99.99
2022-09-28T00:13:00.090Z,99.99
2022-09-28T00:15:31.159Z,99.99
2022-09-28T00:18:01.442Z,99.99
2022-09-28T00:20:31.415Z,99.99
2022-09-28T00:23:02.268Z,99.99
2022-09-28T00:25:33.390Z,99.99
2022-09-28T00:28:03.657Z,99.99
2022-09-28T00:30:33.898Z,99.99
2022-09-28T00:33:04.374Z,99.99
2022-09-28T00:35:35.219Z,99.99
2022-09-28T00:38:06.200Z,99.99
2022-09-28T00:40:36.825Z,99.99
2022-09-28T00:43:29.283Z,99.99
2022-09-28T00:46:35.319Z,99.99
2022-09-28T00:49:12.814Z,99.99
2022-09-28T00:51:45.173Z,99.99
2022-09-28T00:54:17.708Z,99.99
2022-09-28T00:56:50.978Z,99.99
2022-09-28T00:59:21.619Z,99.99
2022-09-28T01:01:52.168Z,99.99
2022-09-28T01:04:29.223Z,99.99
2022-09-28T01:07:02.337Z,99.99
2022-09-28T01:09:34.195Z,99.99
2022-09-28T01:12:04.647Z,99.99
2022-09-28T01:14:35.062Z,99.99
2022-09-28T01:17:18.938Z,99.99
2022-09-28T01:19:59.602Z,99.99
2022-09-28T01:23:07.647Z,99.99
2022-09-28T01:25:57.351Z,99.99
2022-09-28T01:28:30.428Z,99.99
2022-09-28T01:31:13.817Z,99.15
2022-09-28T01:33:48.892Z,98.28
2022-09-28T01:36:29.299Z,98.14
2022-09-28T01:39:07.757Z,98.50
2022-09-28T01:41:41.556Z,98.85
2022-09-28T01:44:16.445Z,99.31
2022-09-28T01:46:50.234Z,99.99
2022-09-28T01:49:37.462Z,99.99
2022-09-28T01:52:21.445Z,99.99
2022-09-28T01:55:04.424Z,99.99
2022-09-28T01:57:57.508Z,99.99
2022-09-28T02:00:29.017Z,99.99
2022-09-28T02:03:13.775Z,99.99
2022-09-28T02:06:08.009Z,99.99
2022-09-28T02:08:51.816Z,99.99
2022-09-28T02:11:24.033Z,99.99
2022-09-28T02:14:07.296Z,99.99
2022-09-28T02:16:43.264Z,99.99
2022-09-28T02:19:27.033Z,99.99
2022-09-28T02:22:01.480Z,99.99
2022-09-28T02:24:47.051Z,99.99
2022-09-28T02:27:34.084Z,99.99
2022-09-28T02:30:07.700Z,99.99
2022-09-28T02:32:43.759Z,99.99
2022-09-28T02:35:19.109Z,99.99
2022-09-28T02:37:50.954Z,99.99
2022-09-28T02:40:28.904Z,99.99
2022-09-28T02:43:17.178Z,99.99
2022-09-28T02:46:03.253Z,99.99
2022-09-28T02:49:20.186Z,99.99
2022-09-28T02:52:07.385Z,99.99
2022-09-28T02:54:48.946Z,99.99
2022-09-28T02:57:54.101Z,99.99
2022-09-28T03:00:26.051Z,99.99
2022-09-28T03:02:59.326Z,99.99
2022-09-28T03:05:37.581Z,99.99
2022-09-28T03:08:35.302Z,99.99
2022-09-28T03:11:20.245Z,99.99
2022-09-28T03:13:54.768Z,99.99
2022-09-28T03:16:33.212Z,99.99
2022-09-28T03:19:04.609Z,99.99
2022-09-28T03:21:36.870Z,99.99
2022-09-28T03:24:07.673Z,99.99
2022-09-28T03:26:37.462Z,99.99
2022-09-28T03:29:08.663Z,99.99
2022-09-28T03:31:39.306Z,99.99
2022-09-28T03:34:09.885Z,99.99
2022-09-28T03:36:40.452Z,99.99
2022-09-28T03:39:10.401Z,99.99
2022-09-28T03:41:40.966Z,99.99
2022-09-28T03:44:11.205Z,99.99
2022-09-28T03:46:42.694Z,99.99
2022-09-28T03:49:13.594Z,99.99
2022-09-28T03:51:43.377Z,99.99
2022-09-28T03:54:14.173Z,99.99
2022-09-28T03:56:44.323Z,99.99
2022-09-28T03:59:14.717Z,99.99
2022-09-28T04:01:44.832Z,99.99
2022-09-28T04:04:15.971Z,99.99
2022-09-28T04:06:46.248Z,99.99
2022-09-28T04:09:16.256Z,99.99
2022-09-28T04:12:03.318Z,99.99
2022-09-28T04:14:35.964Z,99.99
2022-09-28T04:17:06.739Z,99.99
2022-09-28T04:19:37.015Z,99.99
2022-09-28T04:22:34.962Z,99.99
2022-09-28T04:25:05.797Z,99.99
2022-09-28T04:27:54.885Z,99.99
2022-09-28T04:30:26.039Z,99.99
2022-09-28T04:32:56.468Z,99.99
2022-09-28T04:35:26.669Z,99.99
2022-09-28T04:37:56.574Z,99.99
2022-09-28T04:40:26.775Z,99.99
2022-09-28T04:42:58.144Z,99.99
2022-09-28T04:45:29.671Z,99.99
2022-09-28T04:48:09.090Z,99.99
2022-09-28T04:51:02.676Z,99.99
2022-09-28T04:53:33.203Z,99.99
2022-09-28T04:56:05.576Z,99.99
2022-09-28T04:58:39.684Z,99.99
2022-09-28T05:01:14.435Z,99.99
2022-09-28T05:03:57.393Z,99.99
2022-09-28T05:06:50.178Z,99.99
2022-09-28T05:09:20.819Z,99.99
2022-09-28T05:11:54.172Z,99.99
2022-09-28T05:14:27.364Z,99.99
2022-09-28T05:16:57.484Z,99.99
2022-09-28T05:19:32.339Z,99.99
2022-09-28T05:22:07.211Z,99.99
2022-09-28T05:24:42.799Z,99.99
2022-09-28T05:27:12.888Z,99.99
2022-09-28T05:29:43.722Z,99.99
2022-09-28T05:32:28.741Z,99.99
2022-09-28T05:35:03.299Z,99.99
2022-09-28T05:37:42.453Z,99.99
2022-09-28T05:40:13.734Z,99.99
2022-09-28T05:42:44.461Z,99.99
2022-09-28T05:45:15.839Z,99.99
2022-09-28T05:47:47.749Z,99.99
2022-09-28T05:50:22.650Z,99.99
2022-09-28T05:53:08.419Z,99.99
2022-09-28T05:55:41.015Z,99.99
2022-09-28T05:58:11.085Z,99.99
2022-09-28T06:00:41.331Z,99.99
2022-09-28T06:03:16.442Z,99.99
2022-09-28T06:05:48.495Z,99.99
2022-09-28T06:08:18.617Z,99.99
2022-09-28T06:10:55.011Z,99.99
2022-09-28T06:13:25.674Z,99.99
2022-09-28T06:15:55.827Z,99.99
2022-09-28T06:18:25.768Z,99.99
2022-09-28T06:21:24.627Z,99.99
2022-09-28T06:23:56.274Z,99.99
2022-09-28T06:26:26.883Z,99.99
2022-09-28T06:28:57.147Z,99.99
2022-09-28T06:31:26.913Z,99.99
2022-09-28T06:33:58.722Z,99.99
2022-09-28T06:36:33.959Z,99.99
2022-09-28T06:39:04.995Z,99.99
2022-09-28T06:41:36.941Z,99.99
2022-09-28T06:44:16.475Z,99.99
2022-09-28T06:47:21.947Z,99.99
2022-09-28T06:50:17.472Z,99.99
2022-09-28T06:53:12.068Z,99.99
2022-09-28T06:56:04.370Z,99.99
2022-09-28T06:58:34.914Z,99.99
2022-09-28T07:01:06.871Z,99.99
2022-09-28T07:03:56.525Z,99.99
2022-09-28T07:07:00.281Z,99.99
2022-09-28T07:09:51.382Z,99.99
2022-09-28T07:12:38.475Z,99.99
2022-09-28T07:15:26.361Z,99.99
2022-09-28T07:18:03.233Z,99.99
2022-09-28T07:20:49.083Z,99.99
2022-09-28T07:23:22.263Z,99.99
2022-09-28T07:26:10.788Z,99.99
2022-09-28T07:28:58.544Z,99.99
2022-09-28T07:31:55.679Z,99.99
2022-09-28T07:34:32.237Z,99.99
2022-09-28T07:37:24.650Z,99.99
2022-09-28T07:40:13.657Z,99.99
2022-09-28T07:42:44.327Z,99.99
2022-09-28T07:45:15.520Z,99.99
2022-09-28T07:47:47.021Z,99.99
2022-09-28T07:50:35.900Z,99.99
2022-09-28T07:53:19.066Z,99.99
2022-09-28T07:56:10.435Z,99.99
2022-09-28T07:58:50.972Z,99.99
2022-09-28T08:01:41.474Z,99.99
2022-09-28T08:04:14.911Z,99.99
2022-09-28T08:06:46.597Z,99.99
2022-09-28T08:09:17.683Z,99.99
2022-09-28T08:12:25.871Z,99.99
2022-09-28T08:15:18.892Z,99.99
2022-09-28T08:17:56.127Z,99.99
2022-09-28T08:20:49.428Z,99.99
2022-09-28T08:23:22.431Z,99.99
2022-09-28T08:25:56.424Z,99.99
2022-09-28T08:28:26.883Z,99.99
2022-09-28T08:31:08.374Z,99.99
2022-09-28T08:33:58.255Z,99.99
2022-09-28T08:36:46.685Z,99.99
2022-09-28T08:39:35.853Z,99.99
2022-09-28T08:42:44.544Z,99.99
2022-09-28T08:45:24.347Z,99.99
2022-09-28T08:48:45.677Z,99.99
2022-09-28T08:51:48.749Z,99.99
2022-09-28T08:54:48.225Z,99.99
2022-09-28T08:57:43.254Z,99.99
2022-09-28T09:00:23.088Z,99.99
2022-09-28T09:02:55.017Z,99.99
2022-09-28T09:05:48.636Z,99.99
2022-09-28T09:08:43.810Z,99.99
2022-09-28T09:11:35.850Z,99.99
2022-09-28T09:14:16.117Z,99.99
2022-09-28T09:17:28.225Z,99.99
2022-09-28T09:20:20.039Z,99.99
2022-09-28T09:23:01.487Z,99.99
2022-09-28T09:25:35.362Z,99.99
2022-09-28T09:28:14.853Z,99.99
2022-09-28T09:31:04.700Z,99.99
2022-09-28T09:34:02.432Z,99.99
2022-09-28T09:37:05.712Z,99.99
2022-09-28T09:40:20.559Z,99.99
2022-09-28T09:43:31.663Z,99.99
2022-09-28T09:46:44.279Z,99.99
2022-09-28T09:49:52.018Z,99.99
2022-09-28T09:55:50.066Z,99.99
2022-09-28T09:58:48.258Z,99.99
2022-09-28T10:01:42.259Z,99.99
2022-09-28T10:04:29.414Z,99.99
2022-09-28T10:07:09.175Z,99.99
2022-09-28T10:09:45.249Z,99.99
2022-09-28T10:12:35.975Z,99.99
2022-09-28T10:15:09.897Z,99.99
2022-09-28T10:17:52.655Z,99.99
2022-09-28T10:20:42.723Z,99.99
2022-09-28T10:23:43.648Z,99.99
2022-09-28T10:26:45.260Z,99.99
2022-09-28T10:29:28.028Z,99.99
2022-09-28T10:31:59.223Z,99.99
2022-09-28T10:34:34.843Z,99.99
2022-09-28T10:37:14.779Z,99.99
2022-09-28T10:40:42.607Z,99.99
2022-09-28T10:43:36.715Z,99.99
2022-09-28T10:46:12.231Z,99.99
2022-09-28T10:49:02.761Z,99.99
2022-09-28T10:51:43.179Z,99.99
2022-09-28T10:54:21.066Z,99.99
2022-09-28T10:56:56.129Z,99.99
2022-09-28T10:59:33.243Z,99.99
2022-09-28T11:02:36.215Z,99.99
2022-09-28T11:05:23.774Z,99.99
2022-09-28T11:08:02.225Z,99.99
2022-09-28T11:10:40.693Z,99.99
2022-09-28T11:13:16.040Z,99.99
2022-09-28T11:15:55.249Z,99.99
2022-09-28T11:18:35.623Z,99.99
2022-09-28T11:21:16.962Z,99.99
2022-09-28T11:24:19.801Z,99.61
2022-09-28T11:26:54.106Z,99.32
2022-09-28T11:29:42.898Z,99.05
2022-09-28T11:32:23.247Z,98.98
2022-09-28T11:35:27.046Z,98.43
2022-09-28T11:38:16.735Z,98.47
2022-09-28T11:41:21.037Z,98.06
2022-09-28T11:44:08.101Z,96.44
2022-09-28T11:46:54.239Z,95.38
2022-09-28T11:49:48.322Z,95.79
2022-09-28T11:52:34.375Z,95.34
2022-09-28T11:55:40.936Z,95.42
2022-09-28T11:58:19.817Z,95.29
2022-09-28T12:01:06.839Z,96.22
2022-09-28T12:04:04.281Z,95.80
2022-09-28T12:06:47.191Z,96.00
2022-09-28T12:09:33.705Z,95.47
2022-09-28T12:12:38.725Z,96.25
2022-09-28T12:15:18.746Z,94.60
2022-09-28T12:17:58.050Z,93.82
2022-09-28T12:20:46.044Z,92.91
2022-09-28T12:23:32.823Z,91.54
2022-09-28T12:26:28.923Z,92.33
2022-09-28T12:29:08.205Z,91.61
2022-09-28T12:31:54.045Z,91.24
2022-09-28T12:34:24.413Z,91.56
2022-09-28T12:37:16.093Z,92.02
2022-09-28T12:40:18.764Z,93.44
2022-09-28T12:43:12.806Z,92.79
2022-09-28T12:46:09.865Z,92.43
2022-09-28T12:49:33.175Z,92.75
2022-09-28T12:51:56.721Z,92.42
2022-09-28T12:54:51.790Z,92.38
2022-09-28T12:58:12.366Z,93.11
2022-09-28T13:01:24.569Z,92.25
2022-09-28T13:04:13.339Z,91.84
2022-09-28T13:07:04.509Z,91.50
2022-09-28T13:10:09.092Z,91.10
2022-09-28T13:12:58.656Z,89.71
2022-09-28T13:15:43.315Z,89.57
2022-09-28T13:18:20.620Z,90.06
2022-09-28T13:21:07.054Z,89.69
2022-09-28T13:23:50.049Z,89.47
2022-09-28T13:26:57.636Z,89.65
2022-09-28T13:29:28.285Z,87.98
2022-09-28T13:32:01.398Z,87.99
2022-09-28T13:34:37.373Z,88.19
2022-09-28T13:37:21.119Z,86.70
2022-09-28T13:40:01.671Z,86.21
2022-09-28T13:42:41.194Z,86.77
2022-09-28T13:45:23.585Z,87.80
2022-09-28T13:47:55.037Z,87.36
2022-09-28T13:50:41.199Z,87.46
2022-09-28T13:53:44.214Z,87.55
2022-09-28T13:56:23.008Z,86.96
2022-09-28T13:58:57.718Z,86.54
2022-09-28T14:01:48.102Z,87.32
2022-09-28T14:04:38.122Z,86.75
2022-09-28T14:07:18.119Z,87.27
2022-09-28T14:09:50.921Z,87.08
2022-09-28T14:12:55.580Z,88.17
2022-09-28T14:15:31.936Z,87.77
2022-09-28T14:18:32.703Z,88.29
2022-09-28T14:21:06.021Z,87.86
2022-09-28T14:23:59.695Z,88.01
2022-09-28T14:26:53.141Z,88.18
2022-09-28T14:29:36.458Z,87.47
2022-09-28T14:32:27.620Z,88.59
2022-09-28T14:35:03.386Z,87.32
2022-09-28T14:37:54.136Z,87.30
2022-09-28T14:40:50.424Z,86.59
2022-09-28T14:43:58.827Z,87.06
2022-09-28T14:46:32.273Z,86.85
2022-09-28T14:49:24.392Z,87.12
2022-09-28T14:51:57.531Z,87.23
2022-09-28T14:54:46.465Z,87.45
2022-09-28T14:57:27.525Z,88.06
2022-09-28T15:00:00.928Z,87.75
2022-09-28T15:02:40.518Z,88.28
2022-09-28T15:05:22.196Z,88.97
2022-09-28T15:07:54.779Z,90.32
2022-09-28T15:10:38.243Z,91.12
2022-09-28T15:13:28.926Z,91.94
2022-09-28T15:16:19.563Z,91.96
2022-09-28T15:19:11.622Z,92.74
2022-09-28T15:21:48.776Z,92.44
2022-09-28T15:24:32.924Z,91.59
2022-09-28T15:27:07.128Z,91.72
2022-09-28T15:29:37.152Z,91.28
2022-09-28T15:32:06.996Z,90.39
2022-09-28T15:34:53.607Z,89.34
2022-09-28T15:37:26.996Z,88.50
2022-09-28T15:39:58.985Z,88.23
2022-09-28T15:42:29.415Z,86.73
2022-09-28T15:45:27.869Z,86.85
2022-09-28T15:48:32.428Z,87.39
2022-09-28T15:51:13.041Z,87.63
2022-09-28T15:53:59.528Z,87.48
2022-09-28T15:56:31.941Z,87.09
2022-09-28T15:59:15.377Z,88.23
2022-09-28T16:01:46.636Z,88.51
2022-09-28T16:04:34.817Z,88.40
2022-09-28T16:07:25.874Z,87.36
2022-09-28T16:10:01.447Z,87.49
2022-09-28T16:12:42.865Z,87.28
2022-09-28T16:15:35.462Z,86.07
2022-09-28T16:18:21.341Z,86.68
2022-09-28T16:20:54.904Z,84.95
2022-09-28T16:23:33.238Z,85.02
2022-09-28T16:26:04.588Z,86.03
2022-09-28T16:28:40.318Z,85.72
2022-09-28T16:31:17.424Z,85.27
2022-09-28T16:34:03.610Z,86.15
2022-09-28T16:36:46.569Z,85.96
2022-09-28T16:39:18.455Z,85.83
2022-09-28T16:42:04.323Z,86.50
2022-09-28T16:44:38.131Z,85.56
2022-09-28T16:47:08.485Z,85.79
2022-09-28T16:49:41.362Z,85.18
2022-09-28T16:52:35.197Z,85.19
2022-09-28T16:58:08.151Z,86.57
2022-09-28T17:00:38.118Z,86.90
2022-09-28T17:03:22.106Z,87.22
2022-09-28T17:05:53.562Z,87.43
2022-09-28T17:08:25.684Z,87.66
2022-09-28T17:11:14.816Z,88.06
2022-09-28T17:13:47.591Z,88.31
2022-09-28T17:16:43.041Z,87.44
2022-09-28T17:19:34.230Z,88.55
2022-09-28T17:22:04.649Z,88.65
2022-09-28T17:24:34.934Z,88.55
2022-09-28T17:27:08.042Z,88.33
2022-09-28T17:29:38.019Z,88.57
2022-09-28T17:32:18.312Z,88.09
2022-09-28T17:35:00.819Z,87.17
2022-09-28T17:37:37.507Z,87.92
2022-09-28T17:40:22.835Z,88.44
2022-09-28T17:42:56.218Z,87.67
2022-09-28T17:45:29.564Z,87.44
2022-09-28T17:48:00.103Z,87.72
2022-09-28T17:50:36.346Z,87.64
2022-09-28T17:53:07.642Z,87.49
2022-09-28T17:55:39.639Z,87.47
2022-09-28T17:58:21.824Z,87.68
2022-09-28T18:00:53.104Z,87.35
2022-09-28T18:03:25.183Z,87.72
2022-09-28T18:06:04.426Z,87.22
2022-09-28T18:08:35.788Z,87.65
2022-09-28T18:11:05.860Z,87.66
2022-09-28T18:13:35.719Z,88.10
2022-09-28T18:16:06.754Z,88.49
2022-09-28T18:18:41.086Z,88.52
2022-09-28T18:21:11.597Z,88.99
2022-09-28T18:23:41.586Z,89.02
2022-09-28T18:26:15.896Z,89.77
2022-09-28T18:28:46.150Z,89.90
2022-09-28T18:31:20.146Z,89.50
2022-09-28T18:33:50.855Z,90.23
2022-09-28T18:36:20.664Z,90.19
2022-09-28T18:38:51.412Z,90.50
2022-09-28T18:41:22.016Z,90.82
2022-09-28T18:43:52.895Z,90.86
2022-09-28T18:46:23.286Z,90.62
2022-09-28T18:48:53.715Z,90.13
2022-09-28T18:51:23.983Z,90.31
2022-09-28T18:53:54.323Z,89.89
2022-09-28T18:56:24.465Z,89.92
2022-09-28T18:58:54.427Z,89.56
2022-09-28T19:01:31.881Z,90.02
2022-09-28T19:04:03.756Z,90.39
2022-09-28T19:06:35.557Z,90.32
2022-09-28T19:09:05.720Z,90.74
2022-09-28T19:11:35.858Z,91.58
2022-09-28T19:14:06.129Z,92.26
2022-09-28T19:16:36.035Z,92.07
2022-09-28T19:19:07.745Z,91.74
2022-09-28T19:21:38.160Z,91.82
2022-09-28T19:24:08.093Z,92.06
2022-09-28T19:26:38.016Z,92.22
2022-09-28T19:29:08.514Z,91.98
2022-09-28T19:31:38.862Z,91.79
2022-09-28T19:34:11.788Z,91.59
2022-09-28T19:36:44.619Z,92.06
2022-09-28T19:39:18.884Z,92.23
2022-09-28T19:41:55.452Z,92.60
2022-09-28T19:44:27.965Z,92.30
2022-09-28T19:47:08.115Z,92.10
2022-09-28T19:49:41.308Z,92.40
2022-09-28T19:52:17.482Z,92.76
2022-09-28T19:54:58.639Z,93.34
2022-09-28T19:57:33.881Z,92.79
2022-09-28T20:00:04.283Z,93.02
2022-09-28T20:02:37.395Z,92.94
2022-09-28T20:05:07.796Z,93.72
2022-09-28T20:07:37.972Z,93.32
2022-09-28T20:10:08.458Z,93.78
2022-09-28T20:12:38.487Z,94.22
2022-09-28T20:15:09.044Z,94.76
2022-09-28T20:17:39.112Z,94.84
2022-09-28T20:20:09.492Z,95.13
2022-09-28T20:22:39.680Z,95.42
2022-09-28T20:25:11.159Z,95.09
2022-09-28T20:27:41.160Z,95.19
2022-09-28T20:30:12.378Z,95.46
2022-09-28T20:32:44.187Z,95.70
2022-09-28T20:35:30.289Z,95.71
2022-09-28T20:38:08.929Z,95.56
2022-09-28T20:40:42.219Z,96.11
2022-09-28T20:43:12.268Z,96.40
2022-09-28T20:45:42.418Z,96.24
2022-09-28T20:48:12.650Z,96.32
2022-09-28T20:50:43.778Z,96.55
2022-09-28T20:53:14.686Z,96.16
2022-09-28T20:55:45.453Z,96.57
2022-09-28T20:58:15.693Z,96.70
2022-09-28T21:00:45.491Z,96.36
2022-09-28T21:03:15.271Z,96.51
2022-09-28T21:05:45.316Z,97.03
2022-09-28T21:08:15.468Z,96.67
2022-09-28T21:10:46.315Z,97.03
2022-09-28T21:13:16.702Z,96.85
2022-09-28T21:15:46.612Z,96.81
2022-09-28T21:18:17.448Z,97.11
2022-09-28T21:20:52.176Z,96.66
2022-09-28T21:23:25.048Z,96.77
2022-09-28T21:26:08.868Z,97.12
2022-09-28T21:28:39.647Z,97.04
2022-09-28T21:31:12.952Z,97.15
2022-09-28T21:33:43.459Z,97.01
2022-09-28T21:36:13.577Z,97.24
2022-09-28T21:38:43.367Z,97.15
2022-09-28T21:41:13.178Z,96.98
2022-09-28T21:43:43.124Z,96.85
2022-09-28T21:46:13.433Z,96.95
2022-09-28T21:48:43.601Z,96.88
2022-09-28T21:51:16.262Z,96.89
2022-09-28T21:53:46.429Z,96.39
2022-09-28T21:56:16.686Z,96.43
2022-09-28T21:58:47.732Z,96.22
2022-09-28T22:01:20.659Z,95.80
2022-09-28T22:04:00.225Z,95.82
2022-09-28T22:06:30.677Z,95.62
2022-09-28T22:09:00.855Z,95.61
2022-09-28T22:11:30.813Z,95.56
2022-09-28T22:14:01.742Z,95.19
2022-09-28T22:16:32.640Z,95.08
2022-09-28T22:19:03.135Z,94.98
2022-09-28T22:21:37.472Z,94.63
2022-09-28T22:24:09.018Z,94.33
2022-09-28T22:26:40.657Z,94.24
2022-09-28T22:29:12.984Z,94.23
2022-09-28T22:31:43.838Z,94.20
2022-09-28T22:34:13.942Z,94.11
2022-09-28T22:36:43.929Z,93.98
2022-09-28T22:39:13.983Z,93.70
2022-09-28T22:41:44.027Z,93.41
2022-09-28T22:44:14.522Z,92.84
2022-09-28T22:46:45.059Z,92.64
2022-09-28T22:49:15.949Z,92.49
2022-09-28T22:51:46.437Z,92.56
2022-09-28T22:54:17.657Z,92.41
2022-09-28T22:56:48.341Z,93.02
2022-09-28T22:59:19.101Z,93.40
2022-09-28T23:01:49.489Z,93.68
2022-09-28T23:04:20.815Z,93.63
2022-09-28T23:06:52.273Z,93.67
2022-09-28T23:09:23.426Z,93.85
2022-09-28T23:11:53.864Z,94.02
2022-09-28T23:14:24.503Z,94.06
2022-09-28T23:16:55.016Z,94.29
2022-09-28T23:19:45.884Z,94.24
2022-09-28T23:22:16.506Z,94.16
2022-09-28T23:24:47.392Z,94.27
2022-09-28T23:27:18.175Z,94.48
2022-09-28T23:29:50.234Z,94.35
2022-09-28T23:32:20.716Z,94.35
2022-09-28T23:34:50.954Z,94.42
2022-09-28T23:37:21.291Z,94.43
2022-09-28T23:39:52.944Z,94.37
2022-09-28T23:42:27.009Z,94.47
2022-09-28T23:44:57.428Z,94.68
2022-09-28T23:47:27.609Z,94.85
2022-09-28T23:49:57.949Z,94.28
2022-09-28T23:52:28.783Z,94.11
2022-09-28T23:54:59.346Z,94.26
2022-09-28T23:57:30.747Z,94.17
